Port Hope Simpson, Canada
Current Conditions -  °F | °C
As of 4:00 AM on Friday 31 Oct 2014 (Local Time) from CYMH Reporting Station
Clear Clear  
Wind Chill: 28°   Ceiling: Unl
Heat Index: 36°   Visibility: 9mi
Dew Point: 30°   Wind: 10mph
Humidity: 81%   Direction: 270°W
Pressure: 29.61"   Gusts: NA
Location:  52.53°N, 56.3°W
Report Text: CYMH 310700Z AUTO 27009KT 9SM CLR 02/M01 A2961 RMK SLP026
Loading
Personal Weather Stations






























Interactive Weather Map
Tropical Storm Tracking
New forecast layout! Learn more

10-Day Weather Forecast

Advertisements
Track Severe Weather on mobile